15:09
Airports
History
Links
Donate
Help keep this website running!
PayPal
Bitcoin
This page is community maintained. The information is intended for PC simulator navigation or reference.
Always use approved charts for navigation.
OTBK
AL KHOR
AL KHOR (OTBK)
Al Khor, Al Khor, Qatar
(C)
Lat/Lng:25° 37' 46.53" N / 51° 30' 24.2" E
25.629592 / 51.506721
Elevation:10'ft / 3mMSL
ID / ICAO:OTBK
Runways:1
Longest:14-32
Asphalt 1,609m / 5,280ft
Controlled:Yes
Nearby Weather14:00 GMT 2018-01-19
Nearby weather at OTBD, DOHA INTL located 25.7 nautical miles from OTBK
Altimeter: 30.00
Visibility: 6.2 statute miles
Wind: 7 knots (from 110°)
Temp: 19°c / 66°f
Humidity: 82.7%

METAR: OTBD 191400Z 11007KT CAVOK 19/16 Q1016 NOSIG

(Powered by phpweather)
Airport Radio Frequencies
Tower: 120.45
Nearby VORs <50NM
Nearby NDBs
Runway 14 / 32
Dimensions:1609.3 x 29.9m 5280' x 98'ft
Surface:Asphalt
Runway 14 [A]Runway 32 [B]
Heading:140°TH 320°TH
Lat:
Lng:
25° 38' 6.49"N
51° 30' 5.82"E
25° 37' 26.57"N
51° 30' 42.57"E
User Notes and Comments
25° 37' 46.53" N / 51° 30' 24.2" E
Distance To
Airport ID:
Nearby Airports
(C) DOHA INTL 25.7 NM
OTBD ( WX ) S 171°
(C) AL UDEID AB 37.4 NM
OTBH SSW 198°
(C) SHAIKH ISA 60.4 NM
OBBS WNW 289°
(C) BAHRAIN INTL 70.0 NM
OBBI ( WX ) NW 309°
4 ARZANAH 88.2 NM
OMAR SE 131°
4 DAS ISLAND 91.6 NM
OMAS ESE 111°
(C) KING ABDULAZIZ AB 94.8 NM
OEDR ( WX ) WNW 297°
VFR Chart
Flight Planning at SkyVector.com